Time;durP1;ratioP1;P1;durP2;ratioP2;P2;SDS_P1;SDS_P2;PMS_P1;PMS_P2;Temp;Humidity;BMP_temperature;BMP_pressure;BME280_temperature;BME280_humidity;BME280_pressure;Samples;Min_cycle;Max_cycle;Signal;HPM_P1;HPM_P2
2021/01/20 11:51:55;;;;;;;1.42;0.90;;;;;;;;;;5149855;27;20397;-48
2021/01/20 11:54:41;;;;;;;1.15;1.05;;;;;;;;;;5109920;27;20196;-49
2021/01/20 11:57:27;;;;;;;1.33;0.85;;;;;;;;;;5086702;28;20525;-50
2021/01/20 12:00:12;;;;;;;1.55;0.93;;;;;;;;;;5087154;28;20044;-50
2021/01/20 12:02:58;;;;;;;1.20;0.88;;;;;;;;;;5087585;28;20067;-60
2021/01/20 12:05:43;;;;;;;1.10;0.90;;;;;;;;;;5111209;27;20048;-61
2021/01/20 12:08:28;;;;;;;1.95;1.25;;;;;;;;;;5107206;28;20047;-61
2021/01/20 12:11:14;;;;;;;2.15;0.88;;;;;;;;;;5107339;27;20490;-61
2021/01/20 12:13:59;;;;;;;1.05;0.80;;;;;;;;;;5104499;27;20048;-61
2021/01/20 12:16:44;;;;;;;0.95;0.82;;;;;;;;;;5105258;28;20559;-63
2021/01/20 12:19:29;;;;;;;1.17;0.50;;;;;;;;;;5107179;28;20497;-69
2021/01/20 12:22:15;;;;;;;1.02;0.82;;;;;;;;;;5115617;27;20121;-55
2021/01/20 12:27:06;;;;;;;1.98;0.68;;;;;;;;;;5079408;27;20399;-66
2021/01/20 12:29:51;;;;;;;1.58;0.80;;;;;;;;;;5051973;28;20049;-63
2021/01/20 12:32:36;;;;;;;0.57;0.50;;;;;;;;;;5043956;28;20063;-65
2021/01/20 12:35:22;;;;;;;1.10;0.90;;;;;;;;;;5048889;28;20049;-66
2021/01/20 12:38:07;;;;;;;0.95;0.73;;;;;;;;;;5048708;28;20503;-64
2021/01/20 12:40:52;;;;;;;1.10;0.93;;;;;;;;;;5047189;28;20130;-64
2021/01/20 12:43:38;;;;;;;2.80;0.98;;;;;;;;;;5047350;28;20041;-66
2021/01/20 12:46:23;;;;;;;2.42;0.77;;;;;;;;;;5048216;28;20052;-64
2021/01/20 12:49:09;;;;;;;1.20;0.73;;;;;;;;;;5049188;28;20126;-65
2021/01/20 12:51:54;;;;;;;3.17;0.88;;;;;;;;;;5048732;28;20123;-64
2021/01/20 12:54:39;;;;;;;1.58;0.80;;;;;;;;;;5048654;28;20655;-64
2021/01/20 12:57:25;;;;;;;1.30;0.75;;;;;;;;;;5048804;28;20057;-65
2021/01/20 13:00:10;;;;;;;2.15;0.77;;;;;;;;;;5047614;28;20053;-64
2021/01/20 13:02:56;;;;;;;1.25;0.75;;;;;;;;;;5048881;28;20053;-64
2021/01/20 13:05:41;;;;;;;1.27;0.75;;;;;;;;;;5047947;28;20046;-65
2021/01/20 13:08:27;;;;;;;1.63;0.63;;;;;;;;;;5046017;28;20119;-64
2021/01/20 13:11:12;;;;;;;2.05;0.70;;;;;;;;;;5047781;28;20041;-63
2021/01/20 13:13:57;;;;;;;2.88;1.08;;;;;;;;;;5048423;28;20415;-64
2021/01/20 13:16:46;;;;;;;0.95;0.65;;;;;;;;;;5033763;28;20569;-62
2021/01/20 13:19:31;;;;;;;1.55;1.02;;;;;;;;;;5049738;28;20503;-64
2021/01/20 13:22:17;;;;;;;1.20;0.70;;;;;;;;;;5032077;28;20124;-65
2021/01/20 13:25:02;;;;;;;2.03;0.60;;;;;;;;;;5045788;28;20056;-62
2021/01/20 13:27:47;;;;;;;4.00;0.63;;;;;;;;;;5046064;28;20045;-65
2021/01/20 13:30:33;;;;;;;1.33;0.70;;;;;;;;;;5047003;28;20045;-65
2021/01/20 13:33:19;;;;;;;1.48;0.80;;;;;;;;;;5034486;28;20045;-62
2021/01/20 13:36:06;;;;;;;1.50;0.82;;;;;;;;;;5046519;28;20045;-65
2021/01/20 13:38:51;;;;;;;0.82;0.60;;;;;;;;;;5034172;28;20041;-65
2021/01/20 13:41:37;;;;;;;0.77;0.63;;;;;;;;;;5034764;28;20049;-64
2021/01/20 13:44:22;;;;;;;1.52;0.82;;;;;;;;;;5034448;28;20136;-64
2021/01/20 13:47:07;;;;;;;1.20;0.80;;;;;;;;;;5034648;28;20500;-65
2021/01/20 13:49:53;;;;;;;1.63;0.80;;;;;;;;;;5034775;28;20518;-62
2021/01/20 13:52:38;;;;;;;2.25;0.90;;;;;;;;;;5034386;28;20041;-64
2021/01/20 13:55:24;;;;;;;1.00;0.60;;;;;;;;;;5034437;28;20049;-63
2021/01/20 13:58:09;;;;;;;1.98;0.77;;;;;;;;;;5034181;28;20053;-63
2021/01/20 14:00:55;;;;;;;2.72;0.90;;;;;;;;;;5034319;28;20041;-63
2021/01/20 14:03:40;;;;;;;2.67;0.68;;;;;;;;;;5034611;28;20096;-63
2021/01/20 14:06:25;;;;;;;3.20;0.68;;;;;;;;;;5034019;28;20049;-63
2021/01/20 14:09:11;;;;;;;2.17;0.57;;;;;;;;;;5034274;28;20506;-63
2021/01/20 14:11:56;;;;;;;1.80;0.73;;;;;;;;;;5033905;28;20504;-63
2021/01/20 14:14:41;;;;;;;2.28;0.73;;;;;;;;;;5034159;28;20042;-64
2021/01/20 14:17:27;;;;;;;3.05;0.80;;;;;;;;;;5034034;28;20049;-63
2021/01/20 14:20:12;;;;;;;1.35;0.77;;;;;;;;;;5033908;28;20050;-64
2021/01/20 14:22:58;;;;;;;0.90;0.68;;;;;;;;;;5034073;28;20050;-63
2021/01/20 14:25:43;;;;;;;1.20;0.60;;;;;;;;;;5033625;28;20045;-63
2021/01/20 14:28:28;;;;;;;1.27;0.73;;;;;;;;;;5033970;28;20045;-64
2021/01/20 14:31:15;;;;;;;1.98;0.70;;;;;;;;;;5033920;28;20119;-64
2021/01/20 14:34:00;;;;;;;1.17;0.70;;;;;;;;;;5033357;28;20045;-63
2021/01/20 14:36:46;;;;;;;1.25;0.60;;;;;;;;;;5033587;28;20480;-63
2021/01/20 14:39:32;;;;;;;3.00;0.85;;;;;;;;;;5029592;22;20116;-69
2021/01/20 14:42:17;;;;;;;2.35;1.00;;;;;;;;;;5013107;28;20042;-70
2021/01/20 14:46:33;;;;;;;1.13;0.70;;;;;;;;;;5152321;27;20391;-68
2021/01/20 14:49:19;;;;;;;2.92;0.80;;;;;;;;;;5151166;27;20051;-67
2021/01/20 14:52:05;;;;;;;3.38;0.77;;;;;;;;;;5151103;27;20043;-67
2021/01/20 14:54:50;;;;;;;3.60;0.80;;;;;;;;;;5130090;28;20421;-66
2021/01/20 14:57:35;;;;;;;2.78;1.00;;;;;;;;;;5130299;27;20043;-70
2021/01/20 15:00:21;;;;;;;1.70;0.90;;;;;;;;;;5129384;27;20039;-69
2021/01/20 15:03:07;;;;;;;3.70;0.88;;;;;;;;;;5131922;27;20042;-64
2021/01/20 15:05:52;;;;;;;3.67;0.63;;;;;;;;;;5150708;27;20099;-67
2021/01/20 15:08:37;;;;;;;1.90;0.95;;;;;;;;;;5149718;27;20058;-67
2021/01/20 15:11:22;;;;;;;1.20;0.60;;;;;;;;;;5150644;27;20047;-68
2021/01/20 15:14:08;;;;;;;2.05;0.80;;;;;;;;;;5149179;27;20118;-68
2021/01/20 15:16:53;;;;;;;2.60;0.80;;;;;;;;;;5150627;27;20450;-68
2021/01/20 15:19:38;;;;;;;2.03;1.08;;;;;;;;;;5150547;27;20047;-68
2021/01/20 15:22:24;;;;;;;2.05;1.05;;;;;;;;;;5150733;27;20082;-68
2021/01/20 15:25:09;;;;;;;1.73;0.73;;;;;;;;;;5136006;27;20050;-68
2021/01/20 15:27:55;;;;;;;3.40;0.93;;;;;;;;;;5129601;27;20059;-68
2021/01/20 15:30:41;;;;;;;1.33;0.57;;;;;;;;;;5127766;27;20607;-68
2021/01/20 15:33:26;;;;;;;1.38;0.70;;;;;;;;;;5141498;27;20102;-68
2021/01/20 15:36:11;;;;;;;1.42;0.70;;;;;;;;;;5148137;27;20435;-68
2021/01/20 15:38:56;;;;;;;2.67;0.73;;;;;;;;;;5150182;27;20062;-68
2021/01/20 15:41:42;;;;;;;1.40;0.80;;;;;;;;;;5134845;27;20051;-68
2021/01/20 15:44:27;;;;;;;1.17;0.70;;;;;;;;;;5128272;28;20137;-68
2021/01/20 15:47:12;;;;;;;2.08;1.42;;;;;;;;;;5129228;27;20054;-68
2021/01/20 15:49:58;;;;;;;1.60;1.23;;;;;;;;;;5128955;27;20040;-68
2021/01/20 15:52:44;;;;;;;0.93;0.70;;;;;;;;;;5129078;27;20039;-68
2021/01/20 15:55:29;;;;;;;1.05;0.47;;;;;;;;;;5128996;27;20493;-68
2021/01/20 15:58:15;;;;;;;2.80;0.80;;;;;;;;;;5114995;28;20130;-68
2021/01/20 16:01:00;;;;;;;2.00;0.80;;;;;;;;;;5116312;27;20038;-68
2021/01/20 16:03:45;;;;;;;0.95;0.77;;;;;;;;;;5115121;28;20144;-68
2021/01/20 16:06:31;;;;;;;2.05;1.25;;;;;;;;;;5115252;28;20043;-67
2021/01/20 16:09:20;;;;;;;1.25;0.85;;;;;;;;;;5118455;27;20043;-70
2021/01/20 16:12:05;;;;;;;0.95;0.63;;;;;;;;;;5122605;27;20039;-68
2021/01/20 16:14:51;;;;;;;1.13;0.77;;;;;;;;;;5125913;27;20049;-70
2021/01/20 16:17:39;;;;;;;4.68;0.82;;;;;;;;;;5122141;27;20043;-62
2021/01/20 16:20:24;;;;;;;5.00;0.90;;;;;;;;;;5118778;27;20050;-67
2021/01/20 16:23:09;;;;;;;2.72;0.70;;;;;;;;;;5117425;27;20126;-66
2021/01/20 16:25:55;;;;;;;1.52;0.75;;;;;;;;;;5115091;28;20507;-65
2021/01/20 16:28:40;;;;;;;3.92;0.77;;;;;;;;;;5114721;28;20047;-65
2021/01/20 16:31:26;;;;;;;3.30;0.88;;;;;;;;;;5114892;28;20485;-65
2021/01/20 16:34:11;;;;;;;2.50;0.90;;;;;;;;;;5114815;28;20131;-65
2021/01/20 16:36:56;;;;;;;2.10;1.00;;;;;;;;;;5114148;28;20044;-65
2021/01/20 16:39:42;;;;;;;2.25;0.77;;;;;;;;;;5114034;28;20047;-66
2021/01/20 16:42:27;;;;;;;1.80;1.00;;;;;;;;;;5117079;27;20051;-64
2021/01/20 16:45:12;;;;;;;1.70;0.80;;;;;;;;;;5134984;27;20043;-66
2021/01/20 16:47:57;;;;;;;1.08;0.60;;;;;;;;;;5134799;27;20047;-66
2021/01/20 16:50:43;;;;;;;0.88;0.60;;;;;;;;;;5135341;27;20043;-68
2021/01/20 16:53:28;;;;;;;2.22;0.80;;;;;;;;;;5123734;27;20587;-65
2021/01/20 16:56:14;;;;;;;4.05;0.70;;;;;;;;;;5134871;27;20084;-65
2021/01/20 16:58:59;;;;;;;1.45;0.80;;;;;;;;;;5132907;27;20047;-66
2021/01/20 17:01:46;;;;;;;2.70;0.63;;;;;;;;;;5134799;27;20465;-65
2021/01/20 17:04:31;;;;;;;1.33;0.70;;;;;;;;;;5119266;27;20051;-65
2021/01/20 17:07:16;;;;;;;0.68;0.60;;;;;;;;;;5114177;28;20054;-66
2021/01/20 17:10:01;;;;;;;1.92;0.50;;;;;;;;;;5113229;28;20036;-67
2021/01/20 17:12:47;;;;;;;1.02;0.73;;;;;;;;;;5113775;28;20048;-65
2021/01/20 17:15:32;;;;;;;2.05;0.30;;;;;;;;;;5114011;28;20409;-67
2021/01/20 17:18:17;;;;;;;2.25;0.50;;;;;;;;;;5113446;28;20189;-68
2021/01/20 17:21:03;;;;;;;3.60;0.65;;;;;;;;;;5113789;28;20432;-66
2021/01/20 17:23:48;;;;;;;0.80;0.60;;;;;;;;;;5116595;27;20039;-69
2021/01/20 17:26:34;;;;;;;1.23;0.77;;;;;;;;;;5123978;27;20040;-68
2021/01/20 17:29:19;;;;;;;2.28;1.00;;;;;;;;;;5124048;27;20035;-65
2021/01/20 17:32:05;;;;;;;1.30;0.60;;;;;;;;;;5104277;27;20040;-65
2021/01/20 17:34:50;;;;;;;1.17;0.60;;;;;;;;;;5113331;27;20039;-69
2021/01/20 17:37:35;;;;;;;1.50;0.80;;;;;;;;;;5146985;27;20047;-66
2021/01/20 17:40:20;;;;;;;2.25;0.95;;;;;;;;;;5104312;27;20047;-67
2021/01/20 17:43:07;;;;;;;0.90;0.60;;;;;;;;;;5128871;27;20043;-69
2021/01/20 17:45:52;;;;;;;0.70;0.50;;;;;;;;;;5131737;27;20153;-68
2021/01/20 17:48:37;;;;;;;1.48;0.80;;;;;;;;;;5143691;27;20129;-66
2021/01/20 17:51:24;;;;;;;1.25;0.63;;;;;;;;;;5130540;27;20055;-67
2021/01/20 17:54:10;;;;;;;4.53;3.05;;;;;;;;;;5137620;27;20261;-66
2021/01/20 17:56:55;;;;;;;5.82;3.78;;;;;;;;;;5131812;27;20126;-65
2021/01/20 17:59:40;;;;;;;4.72;3.50;;;;;;;;;;5131626;27;20042;-69
2021/01/20 18:02:26;;;;;;;11.65;7.45;;;;;;;;;;5129721;27;20043;-66
2021/01/20 18:05:12;;;;;;;22.27;14.20;;;;;;;;;;5131263;27;20043;-71
2021/01/20 18:07:57;;;;;;;14.90;9.38;;;;;;;;;;5131437;27;20421;-67
2021/01/20 18:10:42;;;;;;;20.08;11.95;;;;;;;;;;5131320;27;20122;-66
2021/01/20 18:13:27;;;;;;;19.40;13.75;;;;;;;;;;5130605;27;20043;-69
2021/01/20 18:16:12;;;;;;;31.98;18.25;;;;;;;;;;5131135;27;20047;-68
2021/01/20 18:18:58;;;;;;;31.40;17.55;;;;;;;;;;5130741;27;20142;-68
2021/01/20 18:21:43;;;;;;;29.52;16.30;;;;;;;;;;5131992;27;20047;-69
2021/01/20 18:24:28;;;;;;;28.00;16.00;;;;;;;;;;5122185;27;20055;-68
2021/01/20 18:27:13;;;;;;;27.60;15.77;;;;;;;;;;5151461;27;20042;-65
2021/01/20 18:29:59;;;;;;;24.85;16.10;;;;;;;;;;5113443;27;20055;-71
2021/01/20 18:32:45;;;;;;;22.30;14.65;;;;;;;;;;5110024;28;20088;-69
2021/01/20 18:35:30;;;;;;;26.52;15.80;;;;;;;;;;5109412;27;20048;-75
2021/01/20 18:38:15;;;;;;;23.05;15.27;;;;;;;;;;5109491;28;20381;-71
2021/01/20 18:41:00;;;;;;;23.45;13.73;;;;;;;;;;5115352;27;20378;-67
2021/01/20 18:43:46;;;;;;;21.92;14.15;;;;;;;;;;5109375;27;20496;-72
2021/01/20 18:46:32;;;;;;;22.77;12.80;;;;;;;;;;5109487;28;20533;-67
2021/01/20 18:49:18;;;;;;;22.02;12.68;;;;;;;;;;5116002;27;20043;-72
2021/01/20 18:52:04;;;;;;;20.17;13.10;;;;;;;;;;5131092;27;20043;-72
2021/01/20 18:54:49;;;;;;;17.98;11.10;;;;;;;;;;5137391;27;20051;-74
2021/01/20 18:57:34;;;;;;;15.85;10.18;;;;;;;;;;5117929;27;20071;-72
2021/01/20 19:00:20;;;;;;;18.15;9.98;;;;;;;;;;5111063;27;20052;-72
2021/01/20 19:03:05;;;;;;;19.20;10.07;;;;;;;;;;5110265;28;20043;-67
2021/01/20 19:05:51;;;;;;;16.60;10.23;;;;;;;;;;5109872;27;20134;-72
2021/01/20 19:08:36;;;;;;;18.38;10.70;;;;;;;;;;5110229;28;20047;-73
2021/01/20 19:11:21;;;;;;;19.60;11.25;;;;;;;;;;5109826;28;20486;-74
2021/01/20 19:14:07;;;;;;;19.10;9.32;;;;;;;;;;5110294;27;20055;-71
2021/01/20 19:16:52;;;;;;;13.32;8.52;;;;;;;;;;5109802;28;20052;-71
2021/01/20 19:19:37;;;;;;;15.02;8.55;;;;;;;;;;5110323;27;20075;-74
2021/01/20 19:22:22;;;;;;;15.18;9.00;;;;;;;;;;5130336;27;20043;-72
2021/01/20 19:25:08;;;;;;;14.70;8.80;;;;;;;;;;5138920;27;20111;-76
2021/01/20 19:27:53;;;;;;;14.95;7.95;;;;;;;;;;5151541;27;20057;-73
2021/01/20 19:30:38;;;;;;;14.93;7.68;;;;;;;;;;5151419;27;20523;-73
2021/01/20 19:33:24;;;;;;;12.77;7.82;;;;;;;;;;5148707;27;20035;-73
2021/01/20 19:36:09;;;;;;;13.63;8.05;;;;;;;;;;5133310;27;20466;-72
2021/01/20 19:38:54;;;;;;;15.38;7.95;;;;;;;;;;5134911;27;20079;-73
2021/01/20 19:41:39;;;;;;;10.95;6.80;;;;;;;;;;5129514;27;20489;-68
2021/01/20 19:44:25;;;;;;;12.15;6.65;;;;;;;;;;5124841;27;20043;-67
2021/01/20 19:47:10;;;;;;;12.75;6.03;;;;;;;;;;5113270;28;20184;-67
2021/01/20 19:49:55;;;;;;;10.30;6.28;;;;;;;;;;5113783;27;20512;-66
2021/01/20 19:52:41;;;;;;;10.60;6.05;;;;;;;;;;5113594;28;20043;-67
2021/01/20 19:55:26;;;;;;;12.57;6.35;;;;;;;;;;5138962;27;20507;-66
2021/01/20 19:58:11;;;;;;;11.88;5.78;;;;;;;;;;5154713;27;20038;-70
2021/01/20 20:00:58;;;;;;;11.50;5.90;;;;;;;;;;5152964;27;20050;-65
2021/01/20 20:03:44;;;;;;;10.45;5.57;;;;;;;;;;5153693;27;20047;-67
2021/01/20 20:06:29;;;;;;;9.73;4.93;;;;;;;;;;5133178;27;20576;-66
2021/01/20 20:09:14;;;;;;;10.30;5.00;;;;;;;;;;5132949;27;20497;-66
2021/01/20 20:11:59;;;;;;;8.88;5.38;;;;;;;;;;5133621;27;20051;-67
2021/01/20 20:14:44;;;;;;;8.73;4.65;;;;;;;;;;5131821;27;20496;-67
2021/01/20 20:17:31;;;;;;;8.80;4.03;;;;;;;;;;5111972;27;20043;-70
2021/01/20 20:20:16;;;;;;;6.75;4.22;;;;;;;;;;5112838;27;20127;-71
2021/01/20 20:23:01;;;;;;;8.52;4.60;;;;;;;;;;5113098;28;20047;-66
2021/01/20 20:25:47;;;;;;;8.80;4.78;;;;;;;;;;5134608;27;20050;-68
2021/01/20 20:28:32;;;;;;;10.20;4.57;;;;;;;;;;5134002;27;20039;-66
2021/01/20 20:31:18;;;;;;;9.02;4.65;;;;;;;;;;5135730;27;20101;-73
2021/01/20 20:34:03;;;;;;;6.97;4.05;;;;;;;;;;5123565;27;20106;-69
2021/01/20 20:36:48;;;;;;;7.63;4.07;;;;;;;;;;5122647;27;20118;-69
2021/01/20 20:39:34;;;;;;;8.02;4.30;;;;;;;;;;5131606;27;20115;-70
2021/01/20 20:42:19;;;;;;;5.90;3.53;;;;;;;;;;5136241;27;20049;-68
2021/01/20 20:45:05;;;;;;;7.30;3.30;;;;;;;;;;5136048;27;20134;-70
2021/01/20 20:47:50;;;;;;;7.97;3.85;;;;;;;;;;5118074;27;20059;-71
2021/01/20 20:50:35;;;;;;;9.27;3.90;;;;;;;;;;5115421;27;20048;-69
2021/01/20 20:53:21;;;;;;;8.10;3.42;;;;;;;;;;5114753;28;20096;-71
2021/01/20 20:56:07;;;;;;;6.75;3.55;;;;;;;;;;5146818;27;20065;-69
2021/01/20 20:58:52;;;;;;;6.20;2.78;;;;;;;;;;5112406;28;20051;-68
2021/01/20 21:01:38;;;;;;;4.07;2.70;;;;;;;;;;5113166;27;20059;-68
2021/01/20 21:04:23;;;;;;;7.60;3.30;;;;;;;;;;5127428;27;20142;-69
2021/01/20 21:07:08;;;;;;;5.50;2.75;;;;;;;;;;5122262;27;20106;-67
2021/01/20 21:09:53;;;;;;;5.90;2.65;;;;;;;;;;5128277;27;20071;-66
2021/01/20 21:12:39;;;;;;;5.00;2.45;;;;;;;;;;5131642;22;20525;-68
2021/01/20 21:15:24;;;;;;;4.47;2.47;;;;;;;;;;5054292;28;20041;-66
2021/01/20 21:18:09;;;;;;;4.88;2.63;;;;;;;;;;5051276;28;20091;-67
2021/01/20 21:20:54;;;;;;;3.67;2.10;;;;;;;;;;5051065;28;20433;-68
2021/01/20 21:23:40;;;;;;;4.97;2.97;;;;;;;;;;5053587;28;20040;-68
2021/01/20 21:26:25;;;;;;;4.25;2.65;;;;;;;;;;5059953;28;20057;-68
2021/01/20 21:29:11;;;;;;;5.60;2.30;;;;;;;;;;5059539;28;20080;-67
2021/01/20 21:31:56;;;;;;;3.13;2.25;;;;;;;;;;5065539;28;20049;-67
2021/01/20 21:34:41;;;;;;;4.95;2.00;;;;;;;;;;5053886;28;20511;-67
2021/01/20 21:37:26;;;;;;;4.30;2.83;;;;;;;;;;5058650;28;20110;-68
2021/01/20 21:40:12;;;;;;;3.33;1.80;;;;;;;;;;5071070;28;20123;-68
2021/01/20 21:42:58;;;;;;;3.45;2.00;;;;;;;;;;5072382;28;20048;-69
2021/01/20 21:45:43;;;;;;;3.47;2.17;;;;;;;;;;5072383;28;20040;-69
2021/01/20 21:48:29;;;;;;;3.95;1.90;;;;;;;;;;5072400;28;20460;-69
2021/01/20 21:51:15;;;;;;;2.83;1.90;;;;;;;;;;5052332;28;20049;-68
2021/01/20 21:54:00;;;;;;;4.47;2.15;;;;;;;;;;5053012;28;20044;-65
2021/01/20 21:56:46;;;;;;;4.03;2.03;;;;;;;;;;5052224;28;20411;-65
2021/01/20 21:59:31;;;;;;;2.92;2.03;;;;;;;;;;5052510;28;20045;-66
2021/01/20 22:02:16;;;;;;;3.60;2.08;;;;;;;;;;5068395;28;20052;-65
2021/01/20 22:05:02;;;;;;;3.85;1.83;;;;;;;;;;5072430;28;20091;-64
2021/01/20 22:07:47;;;;;;;3.40;2.40;;;;;;;;;;5067612;28;20041;-65
2021/01/20 22:10:33;;;;;;;2.88;1.70;;;;;;;;;;5052090;28;20045;-65
2021/01/20 22:13:18;;;;;;;2.05;1.55;;;;;;;;;;5052045;28;20202;-66
2021/01/20 22:16:04;;;;;;;3.75;2.08;;;;;;;;;;5067401;28;20049;-66
2021/01/20 22:18:49;;;;;;;2.97;1.65;;;;;;;;;;5072033;28;20040;-65
2021/01/20 22:21:35;;;;;;;3.17;1.70;;;;;;;;;;5067980;28;20041;-65
2021/01/20 22:24:20;;;;;;;4.07;1.95;;;;;;;;;;5051971;28;20048;-65
2021/01/20 22:27:05;;;;;;;3.20;1.60;;;;;;;;;;5051793;28;20407;-65
2021/01/20 22:29:51;;;;;;;2.53;1.63;;;;;;;;;;5067116;28;20045;-65
2021/01/20 22:32:36;;;;;;;3.72;2.03;;;;;;;;;;5071725;28;20045;-66
2021/01/20 22:35:22;;;;;;;3.45;1.70;;;;;;;;;;5067813;28;20498;-65
2021/01/20 22:38:07;;;;;;;3.38;1.50;;;;;;;;;;5064534;28;20134;-65
2021/01/20 22:40:52;;;;;;;2.45;1.55;;;;;;;;;;5060020;28;20040;-65
2021/01/20 22:43:37;;;;;;;3.17;1.55;;;;;;;;;;5064560;28;20128;-65
2021/01/20 22:46:23;;;;;;;2.28;1.40;;;;;;;;;;5051457;28;20120;-65
2021/01/20 22:49:08;;;;;;;2.78;1.50;;;;;;;;;;5051828;28;20391;-66
2021/01/20 22:51:53;;;;;;;1.73;1.33;;;;;;;;;;5051880;28;20052;-65
2021/01/20 22:54:41;;;;;;;3.10;1.30;;;;;;;;;;5051599;28;20045;-64
2021/01/20 22:57:26;;;;;;;3.55;1.50;;;;;;;;;;5056735;28;20565;-64
2021/01/20 23:00:13;;;;;;;2.33;1.15;;;;;;;;;;5071630;28;20041;-64
